sensor_id;sensor_type;location;lat;lon;timestamp;P1;durP1;ratioP1;P2;durP2;ratioP2
29196;SDS011;62796;42.654;23.316;2022-12-10T00:01:37;40.13;;;14.35;;
29196;SDS011;62796;42.654;23.316;2022-12-10T00:04:03;26.42;;;13.13;;
29196;SDS011;62796;42.654;23.316;2022-12-10T00:06:30;42.20;;;14.25;;
29196;SDS011;62796;42.654;23.316;2022-12-10T00:08:58;31.23;;;14.05;;
29196;SDS011;62796;42.654;23.316;2022-12-10T00:11:24;35.13;;;15.63;;
29196;SDS011;62796;42.654;23.316;2022-12-10T00:13:50;33.40;;;14.27;;
29196;SDS011;62796;42.654;23.316;2022-12-10T00:16:17;28.90;;;14.35;;
29196;SDS011;62796;42.654;23.316;2022-12-10T00:18:44;31.80;;;14.90;;
29196;SDS011;62796;42.654;23.316;2022-12-10T00:21:11;35.67;;;15.45;;
29196;SDS011;62796;42.654;23.316;2022-12-10T00:23:38;29.85;;;14.38;;
29196;SDS011;62796;42.654;23.316;2022-12-10T00:26:05;33.38;;;15.05;;
29196;SDS011;62796;42.654;23.316;2022-12-10T00:28:39;32.72;;;13.98;;
29196;SDS011;62796;42.654;23.316;2022-12-10T00:31:06;31.27;;;14.90;;
29196;SDS011;62796;42.654;23.316;2022-12-10T00:33:33;30.13;;;14.35;;
29196;SDS011;62796;42.654;23.316;2022-12-10T00:36:03;30.45;;;13.82;;
29196;SDS011;62796;42.654;23.316;2022-12-10T00:38:31;26.02;;;13.07;;
29196;SDS011;62796;42.654;23.316;2022-12-10T00:40:56;30.23;;;14.13;;
29196;SDS011;62796;42.654;23.316;2022-12-10T00:43:22;36.60;;;13.80;;
29196;SDS011;62796;42.654;23.316;2022-12-10T00:45:48;27.63;;;12.70;;
29196;SDS011;62796;42.654;23.316;2022-12-10T00:48:13;30.80;;;13.70;;
29196;SDS011;62796;42.654;23.316;2022-12-10T00:50:38;29.35;;;13.07;;
29196;SDS011;62796;42.654;23.316;2022-12-10T00:53:04;27.55;;;12.60;;
29196;SDS011;62796;42.654;23.316;2022-12-10T00:55:29;28.00;;;12.73;;
29196;SDS011;62796;42.654;23.316;2022-12-10T00:57:54;28.08;;;13.27;;
29196;SDS011;62796;42.654;23.316;2022-12-10T01:00:20;37.10;;;13.68;;
29196;SDS011;62796;42.654;23.316;2022-12-10T01:02:45;34.67;;;12.98;;
29196;SDS011;62796;42.654;23.316;2022-12-10T01:05:11;26.67;;;12.88;;
29196;SDS011;62796;42.654;23.316;2022-12-10T01:07:37;32.42;;;13.43;;
29196;SDS011;62796;42.654;23.316;2022-12-10T01:10:02;33.80;;;14.30;;
29196;SDS011;62796;42.654;23.316;2022-12-10T01:12:28;28.92;;;12.35;;
29196;SDS011;62796;42.654;23.316;2022-12-10T01:14:53;31.83;;;13.25;;
29196;SDS011;62796;42.654;23.316;2022-12-10T01:17:19;22.85;;;12.48;;
29196;SDS011;62796;42.654;23.316;2022-12-10T01:19:46;27.98;;;12.07;;
29196;SDS011;62796;42.654;23.316;2022-12-10T01:22:12;28.63;;;12.50;;
29196;SDS011;62796;42.654;23.316;2022-12-10T01:24:37;33.10;;;12.63;;
29196;SDS011;62796;42.654;23.316;2022-12-10T01:27:02;21.77;;;12.38;;
29196;SDS011;62796;42.654;23.316;2022-12-10T01:29:28;26.00;;;12.93;;
29196;SDS011;62796;42.654;23.316;2022-12-10T01:31:54;25.48;;;11.50;;
29196;SDS011;62796;42.654;23.316;2022-12-10T01:34:21;26.67;;;11.75;;
29196;SDS011;62796;42.654;23.316;2022-12-10T01:36:49;28.38;;;12.68;;
29196;SDS011;62796;42.654;23.316;2022-12-10T01:39:17;34.33;;;12.02;;
29196;SDS011;62796;42.654;23.316;2022-12-10T01:41:46;26.60;;;12.60;;
29196;SDS011;62796;42.654;23.316;2022-12-10T01:46:40;33.60;;;13.27;;
29196;SDS011;62796;42.654;23.316;2022-12-10T01:49:12;28.02;;;12.07;;
29196;SDS011;62796;42.654;23.316;2022-12-10T01:51:41;24.35;;;11.55;;
29196;SDS011;62796;42.654;23.316;2022-12-10T01:54:19;28.58;;;12.88;;
29196;SDS011;62796;42.654;23.316;2022-12-10T01:56:48;26.73;;;12.73;;
29196;SDS011;62796;42.654;23.316;2022-12-10T01:59:19;28.70;;;11.98;;
29196;SDS011;62796;42.654;23.316;2022-12-10T02:01:59;29.40;;;11.48;;
29196;SDS011;62796;42.654;23.316;2022-12-10T02:04:29;23.58;;;11.13;;
29196;SDS011;62796;42.654;23.316;2022-12-10T02:12:10;30.83;;;11.40;;
29196;SDS011;62796;42.654;23.316;2022-12-10T02:17:49;26.38;;;9.90;;
29196;SDS011;62796;42.654;23.316;2022-12-10T02:20:30;27.92;;;10.38;;
29196;SDS011;62796;42.654;23.316;2022-12-10T02:23:11;19.17;;;10.00;;
29196;SDS011;62796;42.654;23.316;2022-12-10T02:25:42;20.13;;;10.40;;
29196;SDS011;62796;42.654;23.316;2022-12-10T02:31:05;25.58;;;10.95;;
29196;SDS011;62796;42.654;23.316;2022-12-10T02:33:34;25.58;;;10.50;;
29196;SDS011;62796;42.654;23.316;2022-12-10T02:36:04;23.27;;;9.82;;
29196;SDS011;62796;42.654;23.316;2022-12-10T02:38:32;22.15;;;10.20;;
29196;SDS011;62796;42.654;23.316;2022-12-10T02:41:02;25.23;;;9.15;;
29196;SDS011;62796;42.654;23.316;2022-12-10T02:43:31;22.33;;;9.50;;
29196;SDS011;62796;42.654;23.316;2022-12-10T02:45:57;25.48;;;9.95;;
29196;SDS011;62796;42.654;23.316;2022-12-10T02:48:24;21.92;;;9.48;;
29196;SDS011;62796;42.654;23.316;2022-12-10T02:50:51;15.95;;;8.30;;
29196;SDS011;62796;42.654;23.316;2022-12-10T02:53:16;27.05;;;9.90;;
29196;SDS011;62796;42.654;23.316;2022-12-10T03:00:55;21.00;;;9.35;;
29196;SDS011;62796;42.654;23.316;2022-12-10T03:03:35;22.73;;;9.75;;
29196;SDS011;62796;42.654;23.316;2022-12-10T03:06:27;17.63;;;9.85;;
29196;SDS011;62796;42.654;23.316;2022-12-10T03:09:09;20.10;;;9.70;;
29196;SDS011;62796;42.654;23.316;2022-12-10T03:11:45;21.40;;;9.68;;
29196;SDS011;62796;42.654;23.316;2022-12-10T03:14:28;26.13;;;9.27;;
29196;SDS011;62796;42.654;23.316;2022-12-10T03:16:56;14.00;;;7.33;;
29196;SDS011;62796;42.654;23.316;2022-12-10T03:19:26;14.88;;;8.40;;
29196;SDS011;62796;42.654;23.316;2022-12-10T03:21:58;18.75;;;9.00;;
29196;SDS011;62796;42.654;23.316;2022-12-10T03:24:27;20.08;;;9.27;;
29196;SDS011;62796;42.654;23.316;2022-12-10T03:26:52;21.88;;;9.40;;
29196;SDS011;62796;42.654;23.316;2022-12-10T03:29:23;26.02;;;9.10;;
29196;SDS011;62796;42.654;23.316;2022-12-10T03:31:53;18.73;;;8.90;;
29196;SDS011;62796;42.654;23.316;2022-12-10T03:34:20;20.85;;;8.60;;
29196;SDS011;62796;42.654;23.316;2022-12-10T03:36:46;29.25;;;8.55;;
29196;SDS011;62796;42.654;23.316;2022-12-10T03:39:14;17.42;;;8.02;;
29196;SDS011;62796;42.654;23.316;2022-12-10T03:41:40;16.52;;;7.72;;
29196;SDS011;62796;42.654;23.316;2022-12-10T03:44:05;17.00;;;8.10;;
29196;SDS011;62796;42.654;23.316;2022-12-10T03:46:31;14.80;;;8.20;;
29196;SDS011;62796;42.654;23.316;2022-12-10T03:48:57;19.65;;;7.88;;
29196;SDS011;62796;42.654;23.316;2022-12-10T03:51:23;19.45;;;7.72;;
29196;SDS011;62796;42.654;23.316;2022-12-10T03:53:49;15.43;;;7.30;;
29196;SDS011;62796;42.654;23.316;2022-12-10T03:56:16;16.80;;;7.43;;
29196;SDS011;62796;42.654;23.316;2022-12-10T03:58:42;29.58;;;10.75;;
29196;SDS011;62796;42.654;23.316;2022-12-10T04:01:08;18.17;;;9.48;;
29196;SDS011;62796;42.654;23.316;2022-12-10T04:03:35;18.27;;;7.57;;
29196;SDS011;62796;42.654;23.316;2022-12-10T04:06:02;17.17;;;7.22;;
29196;SDS011;62796;42.654;23.316;2022-12-10T04:08:32;12.85;;;6.80;;
29196;SDS011;62796;42.654;23.316;2022-12-10T04:11:05;17.42;;;6.93;;
29196;SDS011;62796;42.654;23.316;2022-12-10T04:13:33;12.25;;;7.00;;
29196;SDS011;62796;42.654;23.316;2022-12-10T04:16:18;13.77;;;6.55;;
29196;SDS011;62796;42.654;23.316;2022-12-10T04:18:56;23.88;;;7.43;;
29196;SDS011;62796;42.654;23.316;2022-12-10T04:21:33;16.55;;;7.32;;
29196;SDS011;62796;42.654;23.316;2022-12-10T04:24:19;15.65;;;7.07;;
29196;SDS011;62796;42.654;23.316;2022-12-10T04:27:08;18.45;;;7.10;;
29196;SDS011;62796;42.654;23.316;2022-12-10T04:29:45;16.50;;;6.82;;
29196;SDS011;62796;42.654;23.316;2022-12-10T04:32:10;15.68;;;6.95;;
29196;SDS011;62796;42.654;23.316;2022-12-10T04:34:35;15.85;;;7.40;;
29196;SDS011;62796;42.654;23.316;2022-12-10T04:37:01;17.23;;;6.90;;
29196;SDS011;62796;42.654;23.316;2022-12-10T04:39:28;22.48;;;7.53;;
29196;SDS011;62796;42.654;23.316;2022-12-10T04:41:53;17.95;;;7.57;;
29196;SDS011;62796;42.654;23.316;2022-12-10T04:44:19;19.65;;;7.80;;
29196;SDS011;62796;42.654;23.316;2022-12-10T04:46:44;16.88;;;7.35;;
29196;SDS011;62796;42.654;23.316;2022-12-10T04:49:10;17.35;;;7.95;;
29196;SDS011;62796;42.654;23.316;2022-12-10T04:51:36;18.75;;;7.97;;
29196;SDS011;62796;42.654;23.316;2022-12-10T04:54:02;16.45;;;7.80;;
29196;SDS011;62796;42.654;23.316;2022-12-10T04:56:28;21.00;;;7.78;;
29196;SDS011;62796;42.654;23.316;2022-12-10T04:58:55;18.75;;;7.80;;
29196;SDS011;62796;42.654;23.316;2022-12-10T05:01:21;17.23;;;7.70;;
29196;SDS011;62796;42.654;23.316;2022-12-10T05:03:47;13.95;;;8.25;;
29196;SDS011;62796;42.654;23.316;2022-12-10T05:06:13;18.85;;;8.00;;
29196;SDS011;62796;42.654;23.316;2022-12-10T05:08:40;14.82;;;7.47;;
29196;SDS011;62796;42.654;23.316;2022-12-10T05:11:10;17.60;;;8.10;;
29196;SDS011;62796;42.654;23.316;2022-12-10T05:13:37;19.33;;;10.75;;
29196;SDS011;62796;42.654;23.316;2022-12-10T05:16:04;24.02;;;10.23;;
29196;SDS011;62796;42.654;23.316;2022-12-10T05:18:32;18.63;;;9.27;;
29196;SDS011;62796;42.654;23.316;2022-12-10T05:20:58;17.75;;;9.05;;
29196;SDS011;62796;42.654;23.316;2022-12-10T05:23:25;20.40;;;9.70;;
29196;SDS011;62796;42.654;23.316;2022-12-10T05:28:35;22.65;;;9.68;;
29196;SDS011;62796;42.654;23.316;2022-12-10T05:31:03;17.50;;;9.80;;
29196;SDS011;62796;42.654;23.316;2022-12-10T05:33:29;23.45;;;9.65;;
29196;SDS011;62796;42.654;23.316;2022-12-10T05:35:59;20.63;;;8.55;;
29196;SDS011;62796;42.654;23.316;2022-12-10T05:38:27;15.43;;;7.90;;
29196;SDS011;62796;42.654;23.316;2022-12-10T05:40:53;16.05;;;7.82;;
29196;SDS011;62796;42.654;23.316;2022-12-10T05:43:19;18.95;;;8.88;;
29196;SDS011;62796;42.654;23.316;2022-12-10T05:45:45;15.43;;;7.93;;
29196;SDS011;62796;42.654;23.316;2022-12-10T05:48:11;21.75;;;9.23;;
29196;SDS011;62796;42.654;23.316;2022-12-10T05:50:37;18.08;;;8.48;;
29196;SDS011;62796;42.654;23.316;2022-12-10T05:53:03;15.00;;;8.05;;
29196;SDS011;62796;42.654;23.316;2022-12-10T05:55:29;18.38;;;8.90;;
29196;SDS011;62796;42.654;23.316;2022-12-10T05:57:56;18.27;;;9.05;;
29196;SDS011;62796;42.654;23.316;2022-12-10T06:00:22;16.70;;;8.68;;
29196;SDS011;62796;42.654;23.316;2022-12-10T06:02:49;21.08;;;8.52;;
29196;SDS011;62796;42.654;23.316;2022-12-10T06:05:15;22.67;;;9.68;;
29196;SDS011;62796;42.654;23.316;2022-12-10T06:07:40;21.67;;;10.27;;
29196;SDS011;62796;42.654;23.316;2022-12-10T06:10:06;17.67;;;8.80;;
29196;SDS011;62796;42.654;23.316;2022-12-10T06:12:31;14.35;;;7.65;;
29196;SDS011;62796;42.654;23.316;2022-12-10T06:14:57;18.05;;;8.45;;
29196;SDS011;62796;42.654;23.316;2022-12-10T06:17:22;18.10;;;9.10;;
29196;SDS011;62796;42.654;23.316;2022-12-10T06:19:48;18.13;;;9.40;;
29196;SDS011;62796;42.654;23.316;2022-12-10T06:22:13;15.93;;;9.05;;
29196;SDS011;62796;42.654;23.316;2022-12-10T06:24:38;19.55;;;8.75;;
29196;SDS011;62796;42.654;23.316;2022-12-10T06:27:04;19.05;;;9.00;;
29196;SDS011;62796;42.654;23.316;2022-12-10T06:29:30;26.50;;;12.90;;
29196;SDS011;62796;42.654;23.316;2022-12-10T06:31:55;16.20;;;9.52;;
29196;SDS011;62796;42.654;23.316;2022-12-10T06:34:21;18.55;;;10.55;;
29196;SDS011;62796;42.654;23.316;2022-12-10T06:36:46;19.15;;;9.32;;
29196;SDS011;62796;42.654;23.316;2022-12-10T06:39:12;21.00;;;11.00;;
29196;SDS011;62796;42.654;23.316;2022-12-10T06:41:37;22.25;;;8.70;;
29196;SDS011;62796;42.654;23.316;2022-12-10T06:44:06;22.45;;;10.18;;
29196;SDS011;62796;42.654;23.316;2022-12-10T06:46:32;26.23;;;10.18;;
29196;SDS011;62796;42.654;23.316;2022-12-10T06:48:58;26.55;;;11.43;;
29196;SDS011;62796;42.654;23.316;2022-12-10T06:51:23;30.80;;;12.25;;
29196;SDS011;62796;42.654;23.316;2022-12-10T06:53:49;32.88;;;15.18;;
29196;SDS011;62796;42.654;23.316;2022-12-10T06:56:15;32.13;;;16.50;;
29196;SDS011;62796;42.654;23.316;2022-12-10T06:58:42;23.63;;;14.20;;
29196;SDS011;62796;42.654;23.316;2022-12-10T07:01:19;38.35;;;16.27;;
29196;SDS011;62796;42.654;23.316;2022-12-10T07:03:50;31.33;;;13.15;;
29196;SDS011;62796;42.654;23.316;2022-12-10T07:06:17;35.47;;;14.23;;
29196;SDS011;62796;42.654;23.316;2022-12-10T07:08:43;32.75;;;14.68;;
29196;SDS011;62796;42.654;23.316;2022-12-10T07:11:09;29.67;;;13.63;;
29196;SDS011;62796;42.654;23.316;2022-12-10T07:13:37;28.33;;;14.40;;
29196;SDS011;62796;42.654;23.316;2022-12-10T07:16:10;29.98;;;12.68;;
29196;SDS011;62796;42.654;23.316;2022-12-10T07:18:40;38.33;;;12.25;;
29196;SDS011;62796;42.654;23.316;2022-12-10T07:21:39;31.10;;;12.35;;
29196;SDS011;62796;42.654;23.316;2022-12-10T07:24:00;29.02;;;12.27;;
29196;SDS011;62796;42.654;23.316;2022-12-10T07:26:28;26.05;;;13.43;;
29196;SDS011;62796;42.654;23.316;2022-12-10T07:28:54;24.33;;;10.82;;
29196;SDS011;62796;42.654;23.316;2022-12-10T07:31:20;20.70;;;9.98;;
29196;SDS011;62796;42.654;23.316;2022-12-10T07:33:47;23.70;;;10.52;;
29196;SDS011;62796;42.654;23.316;2022-12-10T07:36:12;25.73;;;10.57;;
29196;SDS011;62796;42.654;23.316;2022-12-10T07:38:39;20.70;;;11.07;;
29196;SDS011;62796;42.654;23.316;2022-12-10T07:41:06;23.77;;;12.63;;
29196;SDS011;62796;42.654;23.316;2022-12-10T07:43:35;22.73;;;12.30;;
29196;SDS011;62796;42.654;23.316;2022-12-10T07:48:31;24.85;;;13.68;;
29196;SDS011;62796;42.654;23.316;2022-12-10T07:50:57;28.33;;;14.38;;
29196;SDS011;62796;42.654;23.316;2022-12-10T07:53:23;28.67;;;14.40;;
29196;SDS011;62796;42.654;23.316;2022-12-10T07:55:49;28.95;;;14.52;;
29196;SDS011;62796;42.654;23.316;2022-12-10T07:58:15;26.48;;;14.95;;
29196;SDS011;62796;42.654;23.316;2022-12-10T08:00:40;25.92;;;14.07;;
29196;SDS011;62796;42.654;23.316;2022-12-10T08:03:05;31.00;;;16.70;;
29196;SDS011;62796;42.654;23.316;2022-12-10T08:05:31;31.25;;;17.10;;
29196;SDS011;62796;42.654;23.316;2022-12-10T08:07:56;32.80;;;16.15;;
29196;SDS011;62796;42.654;23.316;2022-12-10T08:10:22;30.10;;;15.95;;
29196;SDS011;62796;42.654;23.316;2022-12-10T08:12:47;28.23;;;16.20;;
29196;SDS011;62796;42.654;23.316;2022-12-10T08:15:12;35.85;;;17.65;;
29196;SDS011;62796;42.654;23.316;2022-12-10T08:17:38;32.47;;;17.50;;
29196;SDS011;62796;42.654;23.316;2022-12-10T08:20:03;55.58;;;19.23;;
29196;SDS011;62796;42.654;23.316;2022-12-10T08:22:29;40.35;;;17.45;;
29196;SDS011;62796;42.654;23.316;2022-12-10T08:24:54;103.47;;;24.67;;
29196;SDS011;62796;42.654;23.316;2022-12-10T08:27:19;40.67;;;16.58;;
29196;SDS011;62796;42.654;23.316;2022-12-10T08:29:45;37.97;;;15.55;;
29196;SDS011;62796;42.654;23.316;2022-12-10T08:32:10;46.88;;;15.93;;
29196;SDS011;62796;42.654;23.316;2022-12-10T08:34:36;54.65;;;17.85;;
29196;SDS011;62796;42.654;23.316;2022-12-10T08:37:01;30.95;;;15.02;;
29196;SDS011;62796;42.654;23.316;2022-12-10T08:39:28;29.35;;;16.00;;
29196;SDS011;62796;42.654;23.316;2022-12-10T08:41:53;31.67;;;14.40;;
29196;SDS011;62796;42.654;23.316;2022-12-10T08:44:19;28.88;;;13.95;;
29196;SDS011;62796;42.654;23.316;2022-12-10T08:46:44;25.10;;;13.20;;
29196;SDS011;62796;42.654;23.316;2022-12-10T08:49:10;29.38;;;13.13;;
29196;SDS011;62796;42.654;23.316;2022-12-10T08:51:35;32.53;;;13.55;;
29196;SDS011;62796;42.654;23.316;2022-12-10T08:54:01;35.47;;;15.55;;
29196;SDS011;62796;42.654;23.316;2022-12-10T08:56:26;31.17;;;15.18;;
29196;SDS011;62796;42.654;23.316;2022-12-10T08:58:51;32.00;;;15.93;;
29196;SDS011;62796;42.654;23.316;2022-12-10T09:01:17;30.27;;;13.95;;
29196;SDS011;62796;42.654;23.316;2022-12-10T09:03:43;37.08;;;13.88;;
29196;SDS011;62796;42.654;23.316;2022-12-10T09:06:11;31.77;;;14.02;;
29196;SDS011;62796;42.654;23.316;2022-12-10T09:08:41;30.95;;;14.98;;
29196;SDS011;62796;42.654;23.316;2022-12-10T09:11:08;29.80;;;14.45;;
29196;SDS011;62796;42.654;23.316;2022-12-10T09:13:54;25.67;;;14.27;;
29196;SDS011;62796;42.654;23.316;2022-12-10T09:16:20;25.42;;;15.27;;
29196;SDS011;62796;42.654;23.316;2022-12-10T09:18:46;25.27;;;14.35;;
29196;SDS011;62796;42.654;23.316;2022-12-10T09:21:13;29.33;;;15.70;;
29196;SDS011;62796;42.654;23.316;2022-12-10T09:23:41;37.83;;;15.75;;
29196;SDS011;62796;42.654;23.316;2022-12-10T09:26:08;32.38;;;15.23;;
29196;SDS011;62796;42.654;23.316;2022-12-10T09:28:35;26.00;;;15.52;;
29196;SDS011;62796;42.654;23.316;2022-12-10T09:31:02;26.75;;;15.02;;
29196;SDS011;62796;42.654;23.316;2022-12-10T09:33:29;28.00;;;15.68;;
29196;SDS011;62796;42.654;23.316;2022-12-10T09:35:55;23.85;;;14.35;;
29196;SDS011;62796;42.654;23.316;2022-12-10T09:38:21;26.00;;;14.75;;
29196;SDS011;62796;42.654;23.316;2022-12-10T09:46:53;27.77;;;16.13;;
29196;SDS011;62796;42.654;23.316;2022-12-10T09:49:29;31.02;;;16.83;;
29196;SDS011;62796;42.654;23.316;2022-12-10T09:52:15;32.97;;;16.67;;
29196;SDS011;62796;42.654;23.316;2022-12-10T09:54:45;31.83;;;16.55;;
29196;SDS011;62796;42.654;23.316;2022-12-10T09:57:20;29.08;;;17.90;;
29196;SDS011;62796;42.654;23.316;2022-12-10T09:59:50;26.92;;;16.58;;
29196;SDS011;62796;42.654;23.316;2022-12-10T10:04:48;28.95;;;16.92;;
29196;SDS011;62796;42.654;23.316;2022-12-10T10:07:21;33.58;;;18.30;;
29196;SDS011;62796;42.654;23.316;2022-12-10T10:09:50;33.95;;;17.40;;
29196;SDS011;62796;42.654;23.316;2022-12-10T10:12:20;24.52;;;16.80;;
29196;SDS011;62796;42.654;23.316;2022-12-10T10:14:45;33.28;;;18.42;;
29196;SDS011;62796;42.654;23.316;2022-12-10T10:17:13;33.00;;;20.13;;
29196;SDS011;62796;42.654;23.316;2022-12-10T10:19:43;37.22;;;21.58;;
29196;SDS011;62796;42.654;23.316;2022-12-10T10:22:09;32.38;;;17.98;;
29196;SDS011;62796;42.654;23.316;2022-12-10T10:24:43;27.48;;;15.90;;
29196;SDS011;62796;42.654;23.316;2022-12-10T10:27:17;32.33;;;16.67;;
29196;SDS011;62796;42.654;23.316;2022-12-10T10:29:49;27.20;;;16.35;;
29196;SDS011;62796;42.654;23.316;2022-12-10T10:32:18;26.17;;;15.40;;
29196;SDS011;62796;42.654;23.316;2022-12-10T10:34:46;29.88;;;14.15;;
29196;SDS011;62796;42.654;23.316;2022-12-10T10:37:21;29.38;;;14.85;;
29196;SDS011;62796;42.654;23.316;2022-12-10T10:39:50;27.83;;;13.55;;
29196;SDS011;62796;42.654;23.316;2022-12-10T10:42:27;20.48;;;12.68;;
29196;SDS011;62796;42.654;23.316;2022-12-10T10:44:59;21.88;;;11.85;;
29196;SDS011;62796;42.654;23.316;2022-12-10T10:47:29;26.83;;;13.05;;
29196;SDS011;62796;42.654;23.316;2022-12-10T10:49:57;24.95;;;13.48;;
29196;SDS011;62796;42.654;23.316;2022-12-10T10:52:23;24.08;;;11.60;;
29196;SDS011;62796;42.654;23.316;2022-12-10T10:54:53;17.60;;;11.73;;
29196;SDS011;62796;42.654;23.316;2022-12-10T11:00:00;25.15;;;14.27;;
29196;SDS011;62796;42.654;23.316;2022-12-10T11:02:53;25.98;;;14.13;;
29196;SDS011;62796;42.654;23.316;2022-12-10T11:05:22;20.05;;;11.52;;
29196;SDS011;62796;42.654;23.316;2022-12-10T11:08:06;28.45;;;11.68;;
29196;SDS011;62796;42.654;23.316;2022-12-10T11:10:40;25.80;;;13.73;;
29196;SDS011;62796;42.654;23.316;2022-12-10T11:13:22;24.52;;;11.98;;
29196;SDS011;62796;42.654;23.316;2022-12-10T11:15:57;29.83;;;14.38;;
29196;SDS011;62796;42.654;23.316;2022-12-10T11:18:36;35.08;;;13.50;;
29196;SDS011;62796;42.654;23.316;2022-12-10T11:23:45;36.35;;;17.58;;
29196;SDS011;62796;42.654;23.316;2022-12-10T11:31:45;34.65;;;12.48;;
29196;SDS011;62796;42.654;23.316;2022-12-10T11:45:18;31.75;;;11.95;;
29196;SDS011;62796;42.654;23.316;2022-12-10T12:04:10;27.77;;;13.15;;
29196;SDS011;62796;42.654;23.316;2022-12-10T12:09:50;17.15;;;9.50;;
29196;SDS011;62796;42.654;23.316;2022-12-10T12:15:28;23.17;;;10.23;;
29196;SDS011;62796;42.654;23.316;2022-12-10T12:20:58;30.05;;;9.68;;
29196;SDS011;62796;42.654;23.316;2022-12-10T12:23:29;25.27;;;9.02;;
29196;SDS011;62796;42.654;23.316;2022-12-10T12:26:03;21.85;;;10.35;;
29196;SDS011;62796;42.654;23.316;2022-12-10T12:28:43;21.05;;;8.93;;
29196;SDS011;62796;42.654;23.316;2022-12-10T12:31:15;17.33;;;8.70;;
29196;SDS011;62796;42.654;23.316;2022-12-10T12:33:54;21.70;;;10.68;;
29196;SDS011;62796;42.654;23.316;2022-12-10T12:36:43;16.05;;;9.68;;
29196;SDS011;62796;42.654;23.316;2022-12-10T12:39:23;20.73;;;9.07;;
29196;SDS011;62796;42.654;23.316;2022-12-10T12:44:56;19.15;;;8.90;;
29196;SDS011;62796;42.654;23.316;2022-12-10T12:50:25;14.90;;;8.07;;
29196;SDS011;62796;42.654;23.316;2022-12-10T12:52:56;15.57;;;8.93;;
29196;SDS011;62796;42.654;23.316;2022-12-10T13:01:31;23.55;;;9.57;;
29196;SDS011;62796;42.654;23.316;2022-12-10T13:04:12;21.08;;;10.60;;
29196;SDS011;62796;42.654;23.316;2022-12-10T13:06:38;23.52;;;11.10;;
29196;SDS011;62796;42.654;23.316;2022-12-10T13:14:33;23.60;;;12.70;;
29196;SDS011;62796;42.654;23.316;2022-12-10T13:17:08;27.25;;;12.35;;
29196;SDS011;62796;42.654;23.316;2022-12-10T13:20:25;33.55;;;13.05;;
29196;SDS011;62796;42.654;23.316;2022-12-10T13:22:55;28.13;;;13.63;;
29196;SDS011;62796;42.654;23.316;2022-12-10T13:25:37;22.15;;;11.90;;
29196;SDS011;62796;42.654;23.316;2022-12-10T13:28:16;27.40;;;11.23;;
29196;SDS011;62796;42.654;23.316;2022-12-10T13:31:05;30.58;;;11.93;;
29196;SDS011;62796;42.654;23.316;2022-12-10T13:33:50;23.05;;;12.48;;
29196;SDS011;62796;42.654;23.316;2022-12-10T13:41:27;171.38;;;30.10;;
29196;SDS011;62796;42.654;23.316;2022-12-10T13:44:59;110.25;;;20.73;;
29196;SDS011;62796;42.654;23.316;2022-12-10T13:49:49;81.68;;;18.65;;
29196;SDS011;62796;42.654;23.316;2022-12-10T13:52:26;40.63;;;16.23;;
29196;SDS011;62796;42.654;23.316;2022-12-10T13:55:41;32.97;;;11.98;;
29196;SDS011;62796;42.654;23.316;2022-12-10T13:58:22;34.03;;;14.50;;
29196;SDS011;62796;42.654;23.316;2022-12-10T14:01:13;45.17;;;16.40;;
29196;SDS011;62796;42.654;23.316;2022-12-10T14:09:03;30.63;;;14.05;;
29196;SDS011;62796;42.654;23.316;2022-12-10T14:11:54;25.40;;;11.48;;
29196;SDS011;62796;42.654;23.316;2022-12-10T14:17:18;40.00;;;14.18;;
29196;SDS011;62796;42.654;23.316;2022-12-10T14:19:46;39.50;;;14.98;;
29196;SDS011;62796;42.654;23.316;2022-12-10T14:22:18;28.88;;;11.18;;
29196;SDS011;62796;42.654;23.316;2022-12-10T14:24:49;46.72;;;15.27;;
29196;SDS011;62796;42.654;23.316;2022-12-10T14:27:17;35.33;;;14.43;;
29196;SDS011;62796;42.654;23.316;2022-12-10T14:29:49;29.60;;;12.20;;
29196;SDS011;62796;42.654;23.316;2022-12-10T14:32:19;28.55;;;13.85;;
29196;SDS011;62796;42.654;23.316;2022-12-10T14:34:51;41.50;;;14.80;;
29196;SDS011;62796;42.654;23.316;2022-12-10T14:37:19;65.57;;;17.05;;
29196;SDS011;62796;42.654;23.316;2022-12-10T14:39:52;81.90;;;27.60;;
29196;SDS011;62796;42.654;23.316;2022-12-10T14:42:18;60.70;;;20.90;;
29196;SDS011;62796;42.654;23.316;2022-12-10T14:44:44;44.17;;;19.08;;
29196;SDS011;62796;42.654;23.316;2022-12-10T14:49:43;38.03;;;16.60;;
29196;SDS011;62796;42.654;23.316;2022-12-10T14:52:23;38.38;;;16.27;;
29196;SDS011;62796;42.654;23.316;2022-12-10T14:54:57;63.00;;;16.75;;
29196;SDS011;62796;42.654;23.316;2022-12-10T14:57:30;76.75;;;20.30;;
29196;SDS011;62796;42.654;23.316;2022-12-10T15:00:04;75.82;;;23.00;;
29196;SDS011;62796;42.654;23.316;2022-12-10T15:02:36;59.10;;;22.58;;
29196;SDS011;62796;42.654;23.316;2022-12-10T15:05:04;56.05;;;26.60;;
29196;SDS011;62796;42.654;23.316;2022-12-10T15:07:37;57.03;;;31.15;;
29196;SDS011;62796;42.654;23.316;2022-12-10T15:10:07;53.00;;;28.48;;
29196;SDS011;62796;42.654;23.316;2022-12-10T15:12:48;42.65;;;25.10;;
29196;SDS011;62796;42.654;23.316;2022-12-10T15:15:23;54.70;;;26.92;;
29196;SDS011;62796;42.654;23.316;2022-12-10T15:18:09;69.35;;;27.48;;
29196;SDS011;62796;42.654;23.316;2022-12-10T15:20:53;53.65;;;24.73;;
29196;SDS011;62796;42.654;23.316;2022-12-10T15:28:40;53.10;;;24.92;;
29196;SDS011;62796;42.654;23.316;2022-12-10T15:33:45;55.65;;;23.55;;
29196;SDS011;62796;42.654;23.316;2022-12-10T15:36:58;54.55;;;24.83;;
29196;SDS011;62796;42.654;23.316;2022-12-10T15:41:50;87.32;;;39.75;;
29196;SDS011;62796;42.654;23.316;2022-12-10T15:44:37;84.28;;;36.30;;
29196;SDS011;62796;42.654;23.316;2022-12-10T15:47:12;59.40;;;26.05;;
29196;SDS011;62796;42.654;23.316;2022-12-10T15:49:42;71.80;;;29.30;;
29196;SDS011;62796;42.654;23.316;2022-12-10T15:52:12;69.70;;;26.45;;
29196;SDS011;62796;42.654;23.316;2022-12-10T15:54:40;65.00;;;25.80;;
29196;SDS011;62796;42.654;23.316;2022-12-10T15:59:48;52.58;;;26.00;;
29196;SDS011;62796;42.654;23.316;2022-12-10T16:07:36;82.13;;;32.33;;
29196;SDS011;62796;42.654;23.316;2022-12-10T16:10:02;62.38;;;30.63;;
29196;SDS011;62796;42.654;23.316;2022-12-10T16:12:29;70.13;;;32.95;;
29196;SDS011;62796;42.654;23.316;2022-12-10T16:14:55;80.05;;;31.92;;
29196;SDS011;62796;42.654;23.316;2022-12-10T16:17:24;93.75;;;35.47;;
29196;SDS011;62796;42.654;23.316;2022-12-10T16:19:51;67.45;;;31.30;;
29196;SDS011;62796;42.654;23.316;2022-12-10T16:22:16;68.80;;;35.17;;
29196;SDS011;62796;42.654;23.316;2022-12-10T16:24:41;70.97;;;36.47;;
29196;SDS011;62796;42.654;23.316;2022-12-10T16:27:16;79.35;;;41.65;;
29196;SDS011;62796;42.654;23.316;2022-12-10T16:29:42;98.85;;;52.40;;
29196;SDS011;62796;42.654;23.316;2022-12-10T16:32:10;81.05;;;41.35;;
29196;SDS011;62796;42.654;23.316;2022-12-10T16:34:37;75.82;;;37.53;;
29196;SDS011;62796;42.654;23.316;2022-12-10T16:37:04;72.32;;;35.80;;
29196;SDS011;62796;42.654;23.316;2022-12-10T16:39:30;65.45;;;32.63;;
29196;SDS011;62796;42.654;23.316;2022-12-10T16:41:55;66.70;;;31.38;;
29196;SDS011;62796;42.654;23.316;2022-12-10T16:44:21;63.38;;;32.75;;